Emden — 3ERP5 — position and weather

sailwx.info

Track history (hours):
 
Tides and Currents Weather Stations Pressure Air Temp Water Temp Dewpoint Dewpoint Depression Visibility Wind Speed Wind Dir Waves Ship Positions

Emden

Last reported at 2017-Jan-16 04:07 UTC. Time now 2017-Jan-17 21:23 UTC.
Position N 49°09' W 005°11'.

Length 177 m; draft 7.2 m.

Type: Ship. MMSI: 355051000.

Date/timePositionNaut miles runAvg speedWind from/ knotsBaromVisibWave heightAir tempDewpointWater temp
2017-Jan-16 04:07N 49°09' W 005°11'13613.9
2017-Jan-15 18:20N 50°10' W 002°03'1215.6
2017-Jan-15 17:33N 50°14' W 001°45'1716.8
2017-Jan-15 16:33N 50°18' W 001°20'2117.0
2017-Jan-15 15:20N 50°24' W 000°48'1215.5
2017-Jan-15 14:33N 50°27' W 000°30'1414.2
2017-Jan-15 13:32N 50°31' W 000°08'1313.2
2017-Jan-15 12:33N 50°34' E 000°12'1212.5
2017-Jan-15 11:33N 50°37' E 000°31'1212.5
2017-Jan-15 10:33N 50°44' E 000°48'1514.1
2017-Jan-15 09:32N 50°52' E 001°06'1616.2
2017-Jan-15 08:33N 51°03' E 001°25'1616.4
2017-Jan-15 07:34N 51°13' E 001°45'1514.7
2017-Jan-15 06:34N 51°25' E 001°59'1413.5
2017-Jan-15 05:33N 51°36' E 002°12'11513.9
2017-Jan-14 21:18N 53°03' E 004°14'1114.1
2017-Jan-14 20:33N 53°11' E 004°25'7810.9
2017-Jan-14 13:20N 53°37' E 006°30'1113.7
2017-Jan-14 12:33N 53°31' E 006°45'1313.4
2017-Jan-14 11:33N 53°21' E 006°59'7 6.6
2017-Jan-14 10:31N 53°20' E 007°11'0 0.0
2017-Jan-14 09:31N 53°20' E 007°11'0 0.0
2017-Jan-14 08:22N 53°20' E 007°11'0 0.0
2017-Jan-14 07:19N 53°20' E 007°11'0 0.0
2017-Jan-14 05:22N 53°20' E 007°11'0 0.0
2017-Jan-14 04:07N 53°20' E 007°11'0 0.0
2017-Jan-14 03:28N 53°20' E 007°11'0 0.0
2017-Jan-13 23:28N 53°20' E 007°11'0 0.0
2017-Jan-13 22:24N 53°20' E 007°11'0 0.0
2017-Jan-13 21:33N 53°20' E 007°11'0 0.0
2017-Jan-13 20:27N 53°20' E 007°11'0 0.0
2017-Jan-13 19:27N 53°20' E 007°11'0 0.0
2017-Jan-13 18:33N 53°20' E 007°11'0 0.0
2017-Jan-13 17:33N 53°20' E 007°11'0 0.0
2017-Jan-13 16:30N 53°20' E 007°11'0 0.0
2017-Jan-13 15:33N 53°20' E 007°11'0 0.0
2017-Jan-13 14:33N 53°20' E 007°11'0 0.0
2017-Jan-13 13:03N 53°20' E 007°11'0 0.0
2017-Jan-13 12:33N 53°20' E 007°11'0 0.0
2017-Jan-13 11:21N 53°20' E 007°11'2 2.8
2017-Jan-13 10:32N 53°20' E 007°07'1212.5
2017-Jan-13 09:33N 53°28' E 006°51'5310.6
2017-Jan-13 04:32N 53°33' E 005°22'1515.0
2017-Jan-13 03:33N 53°27' E 004°60'2612.8
2017-Jan-13 01:33N 53°10' E 004°29'1212.2
2017-Jan-13 00:33N 52°58' E 004°20'1212.3
2017-Jan-12 23:33N 52°48' E 004°10'1211.7
2017-Jan-12 22:33N 52°39' E 003°58'1312.4
2017-Jan-12 21:32N 52°30' E 003°44'5513.3
2017-Jan-12 17:25N 51°50' E 002°42'1315.6
2017-Jan-12 16:33N 51°40' E 002°28'1616.0
2017-Jan-12 15:33N 51°27' E 002°13'1616.0
2017-Jan-12 14:33N 51°13' E 002°02'1716.9
2017-Jan-12 13:33N 51°03' E 001°40'1717.3
2017-Jan-12 12:33N 50°49' E 001°24'4715.7
2017-Jan-12 09:33N 50°23' E 000°22'1717.5
2017-Jan-12 08:33N 50°19' W 000°05'1818.1
2017-Jan-12 07:33N 50°14' W 000°32'1818.2
2017-Jan-12 06:33N 50°08' W 000°59'1717.6
2017-Jan-12 05:33N 50°04' W 001°26'1616.1
2017-Jan-12 04:34N 49°60' W 001°50'1514.5
2017-Jan-12 03:33N 49°56' W 002°12'5813.1
2017-Jan-11 23:07N 49°33' W 003°35'1013.3
2017-Jan-11 22:24N 49°29' W 003°48'1613.4
2017-Jan-11 21:12N 49°21' W 004°09'1413.4
2017-Jan-11 20:08N 49°13' W 004°28'813.5
2017-Jan-11 19:33N 49°10' W 004°38'1413.8
2017-Jan-11 18:32N 49°02' W 004°56'1414.3
2017-Jan-11 17:33N 48°54' W 005°14'1515.2
2017-Jan-11 16:33N 48°46' W 005°34'1813.6
2017-Jan-11 15:16N 48°31' W 005°47'912.3
2017-Jan-11 14:33N 48°22' W 005°46'2612.7
2017-Jan-11 12:32N 47°57' W 005°36'1212.6
2017-Jan-11 11:33N 47°46' W 005°32'1312.8
2017-Jan-11 10:34N 47°33' W 005°26'1312.4
2017-Jan-11 09:33N 47°21' W 005°22'1212.2
2017-Jan-11 08:33N 47°09' W 005°17'4012.0
2017-Jan-11 05:14N 46°31' W 005°01'3211.9
2017-Jan-11 02:33N 46°00' W 004°48'55 1.2
2017-Jan-09 04:31N 46°51' W 005°21'1514.7
2017-Jan-09 03:31N 47°05' W 005°28'1414.9
2017-Jan-09 02:32N 47°18' W 005°34'17914.5
2017-Jan-08 14:14N 50°16' W 005°59'1014.5
2017-Jan-08 13:33N 50°26' W 005°59'1414.0
2017-Jan-08 12:33N 50°40' W 005°58'1414.2
2017-Jan-08 11:34N 50°54' W 005°58'1714.6
2017-Jan-08 10:22N 51°12' W 005°60'4315.1
2017-Jan-08 07:31N 51°55' W 005°55'1414.7
2017-Jan-08 06:33N 52°09' W 005°54'1413.8
2017-Jan-08 05:33N 52°23' W 005°53'1313.3
2017-Jan-08 04:34N 52°36' W 005°52'5 0.2
2017-Jan-07 03:20N 52°40' W 005°50'1 0.4
2017-Jan-07 01:33N 52°41' W 005°49'1111.2
2017-Jan-07 00:32N 52°30' W 005°49'1414.0
2017-Jan-06 23:33N 52°16' W 005°48'6813.1
2017-Jan-06 18:21N 51°08' W 005°52'1113.8
2017-Jan-06 17:34N 50°57' W 005°53'1413.8
2017-Jan-06 16:33N 50°43' W 005°54'1413.8
2017-Jan-06 15:34N 50°29' W 005°54'1413.7
2017-Jan-06 14:33N 50°15' W 005°55'1413.5
2017-Jan-06 13:32N 50°02' W 005°55'2710.8
2017-Jan-06 11:03N 49°50' W 005°17'812.5
2017-Jan-06 10:26N 49°51' W 005°06'1112.8
2017-Jan-06 09:33N 49°52' W 004°48'1313.3
2017-Jan-06 08:33N 49°53' W 004°28'1413.9
2017-Jan-06 07:33N 49°55' W 004°06'1414.6
2017-Jan-06 06:33N 49°57' W 003°44'1514.9
2017-Jan-06 05:33N 49°58' W 003°21'1414.5
2017-Jan-06 04:34N 50°00' W 002°58'  
Track history (hours):
 
Tides and Currents Weather Stations Pressure Air Temp Water Temp Dewpoint Dewpoint Depression Visibility Wind Speed Wind Dir Waves Ship Positions

Emden

Last reported at 2017-Jan-16 04:07 UTC. Time now 2017-Jan-17 21:23 UTC.
Position N 49°09' W 005°11'.

Length 177 m; draft 7.2 m.

Type: Ship. MMSI: 355051000.

Date/timePositionNaut miles runAvg speedWind from/ knotsBaromVisibWave heightAir tempDewpointWater temp
2017-Jan-16 04:07N 49°09' W 005°11'13613.9
2017-Jan-15 18:20N 50°10' W 002°03'1215.6
2017-Jan-15 17:33N 50°14' W 001°45'1716.8
2017-Jan-15 16:33N 50°18' W 001°20'2117.0
2017-Jan-15 15:20N 50°24' W 000°48'1215.5
2017-Jan-15 14:33N 50°27' W 000°30'1414.2
2017-Jan-15 13:32N 50°31' W 000°08'1313.2
2017-Jan-15 12:33N 50°34' E 000°12'1212.5
2017-Jan-15 11:33N 50°37' E 000°31'1212.5
2017-Jan-15 10:33N 50°44' E 000°48'1514.1
2017-Jan-15 09:32N 50°52' E 001°06'1616.2
2017-Jan-15 08:33N 51°03' E 001°25'1616.4
2017-Jan-15 07:34N 51°13' E 001°45'1514.7
2017-Jan-15 06:34N 51°25' E 001°59'1413.5
2017-Jan-15 05:33N 51°36' E 002°12'11513.9
2017-Jan-14 21:18N 53°03' E 004°14'1114.1
2017-Jan-14 20:33N 53°11' E 004°25'7810.9
2017-Jan-14 13:20N 53°37' E 006°30'1113.7
2017-Jan-14 12:33N 53°31' E 006°45'1313.4
2017-Jan-14 11:33N 53°21' E 006°59'7 6.6
2017-Jan-14 10:31N 53°20' E 007°11'0 0.0
2017-Jan-14 09:31N 53°20' E 007°11'0 0.0
2017-Jan-14 08:22N 53°20' E 007°11'0 0.0
2017-Jan-14 07:19N 53°20' E 007°11'0 0.0
2017-Jan-14 05:22N 53°20' E 007°11'0 0.0
2017-Jan-14 04:07N 53°20' E 007°11'0 0.0
2017-Jan-14 03:28N 53°20' E 007°11'0 0.0
2017-Jan-13 23:28N 53°20' E 007°11'0 0.0
2017-Jan-13 22:24N 53°20' E 007°11'0 0.0
2017-Jan-13 21:33N 53°20' E 007°11'0 0.0
2017-Jan-13 20:27N 53°20' E 007°11'0 0.0
2017-Jan-13 19:27N 53°20' E 007°11'0 0.0
2017-Jan-13 18:33N 53°20' E 007°11'0 0.0
2017-Jan-13 17:33N 53°20' E 007°11'0 0.0
2017-Jan-13 16:30N 53°20' E 007°11'0 0.0
2017-Jan-13 15:33N 53°20' E 007°11'0 0.0
2017-Jan-13 14:33N 53°20' E 007°11'0 0.0
2017-Jan-13 13:03N 53°20' E 007°11'0 0.0
2017-Jan-13 12:33N 53°20' E 007°11'0 0.0
2017-Jan-13 11:21N 53°20' E 007°11'2 2.8
2017-Jan-13 10:32N 53°20' E 007°07'1212.5
2017-Jan-13 09:33N 53°28' E 006°51'5310.6
2017-Jan-13 04:32N 53°33' E 005°22'1515.0
2017-Jan-13 03:33N 53°27' E 004°60'2612.8
2017-Jan-13 01:33N 53°10' E 004°29'1212.2
2017-Jan-13 00:33N 52°58' E 004°20'1212.3
2017-Jan-12 23:33N 52°48' E 004°10'1211.7
2017-Jan-12 22:33N 52°39' E 003°58'1312.4
2017-Jan-12 21:32N 52°30' E 003°44'5513.3
2017-Jan-12 17:25N 51°50' E 002°42'1315.6
2017-Jan-12 16:33N 51°40' E 002°28'1616.0
2017-Jan-12 15:33N 51°27' E 002°13'1616.0
2017-Jan-12 14:33N 51°13' E 002°02'1716.9
2017-Jan-12 13:33N 51°03' E 001°40'1717.3
2017-Jan-12 12:33N 50°49' E 001°24'4715.7
2017-Jan-12 09:33N 50°23' E 000°22'1717.5
2017-Jan-12 08:33N 50°19' W 000°05'1818.1
2017-Jan-12 07:33N 50°14' W 000°32'1818.2
2017-Jan-12 06:33N 50°08' W 000°59'1717.6
2017-Jan-12 05:33N 50°04' W 001°26'1616.1
2017-Jan-12 04:34N 49°60' W 001°50'1514.5
2017-Jan-12 03:33N 49°56' W 002°12'5813.1
2017-Jan-11 23:07N 49°33' W 003°35'1013.3
2017-Jan-11 22:24N 49°29' W 003°48'1613.4
2017-Jan-11 21:12N 49°21' W 004°09'1413.4
2017-Jan-11 20:08N 49°13' W 004°28'813.5
2017-Jan-11 19:33N 49°10' W 004°38'1413.8
2017-Jan-11 18:32N 49°02' W 004°56'1414.3
2017-Jan-11 17:33N 48°54' W 005°14'1515.2
2017-Jan-11 16:33N 48°46' W 005°34'1813.6
2017-Jan-11 15:16N 48°31' W 005°47'912.3
2017-Jan-11 14:33N 48°22' W 005°46'2612.7
2017-Jan-11 12:32N 47°57' W 005°36'1212.6
2017-Jan-11 11:33N 47°46' W 005°32'1312.8
2017-Jan-11 10:34N 47°33' W 005°26'1312.4
2017-Jan-11 09:33N 47°21' W 005°22'1212.2
2017-Jan-11 08:33N 47°09' W 005°17'4012.0
2017-Jan-11 05:14N 46°31' W 005°01'3211.9
2017-Jan-11 02:33N 46°00' W 004°48'55 1.2
2017-Jan-09 04:31N 46°51' W 005°21'1514.7
2017-Jan-09 03:31N 47°05' W 005°28'1414.9
2017-Jan-09 02:32N 47°18' W 005°34'17914.5
2017-Jan-08 14:14N 50°16' W 005°59'1014.5
2017-Jan-08 13:33N 50°26' W 005°59'1414.0
2017-Jan-08 12:33N 50°40' W 005°58'1414.2
2017-Jan-08 11:34N 50°54' W 005°58'1714.6
2017-Jan-08 10:22N 51°12' W 005°60'4315.1
2017-Jan-08 07:31N 51°55' W 005°55'1414.7
2017-Jan-08 06:33N 52°09' W 005°54'1413.8
2017-Jan-08 05:33N 52°23' W 005°53'1313.3
2017-Jan-08 04:34N 52°36' W 005°52'5 0.2
2017-Jan-07 03:20N 52°40' W 005°50'1 0.4
2017-Jan-07 01:33N 52°41' W 005°49'1111.2
2017-Jan-07 00:32N 52°30' W 005°49'1414.0
2017-Jan-06 23:33N 52°16' W 005°48'6813.1
2017-Jan-06 18:21N 51°08' W 005°52'1113.8
2017-Jan-06 17:34N 50°57' W 005°53'1413.8
2017-Jan-06 16:33N 50°43' W 005°54'1413.8
2017-Jan-06 15:34N 50°29' W 005°54'1413.7
2017-Jan-06 14:33N 50°15' W 005°55'1413.5
2017-Jan-06 13:32N 50°02' W 005°55'2710.8
2017-Jan-06 11:03N 49°50' W 005°17'812.5
2017-Jan-06 10:26N 49°51' W 005°06'1112.8
2017-Jan-06 09:33N 49°52' W 004°48'1313.3
2017-Jan-06 08:33N 49°53' W 004°28'1413.9
2017-Jan-06 07:33N 49°55' W 004°06'1414.6
2017-Jan-06 06:33N 49°57' W 003°44'1514.9
2017-Jan-06 05:33N 49°58' W 003°21'1414.5
2017-Jan-06 04:34N 50°00' W 002°58'  

Dump ship's entire track history